Time;durP1;ratioP1;P1;durP2;ratioP2;P2;SDS_P1;SDS_P2;PMS_P1;PMS_P2;Temp;Humidity;BMP_temperature;BMP_pressure;BME280_temperature;BME280_humidity;BME280_pressure;Samples;Min_cycle;Max_cycle;Signal;HPM_P1;HPM_P2
2023/12/29 00:04:32;;;;;;;26.65;18.83;;;;;;;20.46;49.80;100739.50;41677716;28;20072;-67
2023/12/29 00:24:33;;;;;;;26.75;18.83;;;;;;;20.43;49.75;100726.59;41675807;28;20056;-67
2023/12/29 00:44:34;;;;;;;29.88;18.17;;;;;;;20.39;49.23;100713.75;41668710;28;20041;-65
2023/12/29 01:04:36;;;;;;;24.45;17.88;;;;;;;20.36;50.02;100701.66;41671284;28;20045;-66
2023/12/29 01:24:37;;;;;;;26.08;18.15;;;;;;;20.36;49.85;100706.91;41672157;28;20120;-67
2023/12/29 01:44:37;;;;;;;24.13;17.55;;;;;;;20.29;49.75;100697.75;41671469;28;20045;-67
2023/12/29 02:04:41;;;;;;;24.25;17.67;;;;;;;20.32;49.59;100668.59;41662787;28;20048;-66
2023/12/29 02:24:49;;;;;;;23.35;17.48;;;;;;;20.26;49.42;100682.19;41692108;28;20464;-67
2023/12/29 02:44:49;;;;;;;22.02;16.85;;;;;;;20.24;49.59;100642.03;41694265;28;20042;-66
2023/12/29 03:04:50;;;;;;;23.17;17.23;;;;;;;20.24;50.04;100660.44;41670507;28;20200;-67
2023/12/29 03:24:50;;;;;;;22.52;16.75;;;;;;;20.22;49.76;100628.13;41671509;28;20067;-67
2023/12/29 03:44:51;;;;;;;21.75;16.80;;;;;;;20.18;49.55;100645.06;41674886;28;20072;-66
2023/12/29 04:04:51;;;;;;;19.80;15.88;;;;;;;20.21;50.38;100652.75;41668436;28;21512;-66
2023/12/29 04:24:51;;;;;;;20.20;14.98;;;;;;;20.22;50.45;100651.81;41669230;28;20052;-67
2023/12/29 04:44:52;;;;;;;18.55;13.93;;;;;;;20.20;50.40;100651.91;41669390;28;20081;-66
2023/12/29 05:04:52;;;;;;;16.83;13.00;;;;;;;20.25;50.57;100644.53;41656404;28;20048;-66
2023/12/29 05:24:57;;;;;;;17.83;12.90;;;;;;;20.69;49.15;100657.28;41665644;28;20046;-67
2023/12/29 05:44:58;;;;;;;15.52;11.63;;;;;;;20.91;48.04;100668.00;41669610;28;20393;-67
2023/12/29 06:04:58;;;;;;;15.95;11.93;;;;;;;21.05;48.58;100663.53;41689918;28;20056;-67
2023/12/29 06:24:59;;;;;;;13.80;10.73;;;;;;;21.13;48.40;100677.00;41695590;28;20046;-66
2023/12/29 06:45:00;;;;;;;14.02;9.77;;;;;;;21.33;49.55;100675.53;41687088;28;20049;-69
2023/12/29 07:05:01;;;;;;;15.50;10.82;;;;;;;21.48;50.01;100678.00;41685455;28;20033;-68
2023/12/29 07:25:02;;;;;;;13.52;10.85;;;;;;;21.44;50.24;100682.66;41669355;28;20058;-68
2023/12/29 07:45:02;;;;;;;11.23;9.70;;;;;;;21.55;49.31;100677.41;41671529;28;20042;-68
2023/12/29 08:05:03;;;;;;;14.43;10.55;;;;;;;21.69;50.32;100672.94;41682937;28;20077;-72
2023/12/29 08:25:04;;;;;;;13.57;10.27;;;;;;;21.62;49.93;100698.06;41675888;28;20140;-73
2023/12/29 08:45:04;;;;;;;12.85;10.68;;;;;;;21.62;50.66;100711.25;41651217;28;20048;-67
2023/12/29 09:05:07;;;;;;;13.23;11.27;;;;;;;21.32;48.08;100694.91;41654629;28;20821;-68
2023/12/29 09:25:07;;;;;;;22.33;11.27;;;;;;;21.54;48.19;100694.16;41695663;28;20087;-68
2023/12/29 09:45:11;;;;;;;15.13;10.98;;;;;;;21.74;48.22;100697.19;41710733;28;20111;-68
2023/12/29 10:05:11;;;;;;;14.95;10.90;;;;;;;21.74;48.53;100665.53;41707513;28;20052;-66
2023/12/29 10:25:13;;;;;;;24.45;16.40;;;;;;;20.60;39.42;100650.91;41706585;28;20396;-69
2023/12/29 10:45:14;;;;;;;21.15;12.65;;;;;;;21.75;43.17;100628.53;41695987;28;20147;-67
2023/12/29 11:05:15;;;;;;;14.80;11.20;;;;;;;22.00;45.77;100613.44;41678654;28;20048;-68
2023/12/29 11:25:15;;;;;;;14.07;10.65;;;;;;;22.09;46.80;100580.25;41683136;28;20048;-71
2023/12/29 11:45:28;;;;;;;16.42;10.77;;;;;;;22.14;46.85;100564.06;41683827;28;20054;-69
2023/12/29 12:05:49;;;;;;;17.33;11.02;;;;;;;22.31;47.53;100534.53;41667332;28;20044;-68
2023/12/29 12:26:01;;;;;;;20.40;11.68;;;;;;;22.57;47.74;100518.47;41465219;28;20382;-65
2023/12/29 12:46:03;;;;;;;;;;;;;;;22.63;45.03;100507.41;41394913;28;20386;-65
2023/12/29 13:06:04;;;;;;;18.88;13.38;;;;;;;22.37;48.79;100517.38;41458234;28;20297;-65
2023/12/29 13:26:07;;;;;;;17.67;12.55;;;;;;;22.15;48.62;100491.91;41253459;28;20046;-67
2023/12/29 13:46:11;;;;;;;20.67;11.25;;;;;;;22.13;49.06;100501.72;41320903;28;20096;-67
2023/12/29 14:06:20;;;;;;;14.52;11.00;;;;;;;22.12;48.90;100493.00;41226290;28;20049;-68
2023/12/29 14:26:20;;;;;;;13.68;10.10;;;;;;;21.97;49.53;100502.09;41363877;28;20050;-70
2023/12/29 14:46:21;;;;;;;13.02;9.82;;;;;;;21.93;49.14;100525.25;41199445;28;20544;-68
2023/12/29 15:06:21;;;;;;;17.60;12.13;;;;;;;21.37;46.68;100541.81;41274894;28;20111;-68
2023/12/29 15:26:21;;;;;;;21.25;10.40;;;;;;;21.80;48.17;100558.78;41263031;28;20058;-66
2023/12/29 15:46:22;;;;;;;13.27;9.77;;;;;;;21.71;50.16;100557.69;41329138;28;21744;-69
2023/12/29 16:06:24;;;;;;;12.30;9.65;;;;;;;21.64;50.07;100565.25;41305495;28;20042;-71
2023/12/29 16:26:25;;;;;;;12.80;9.75;;;;;;;21.65;49.38;100548.47;41366176;28;20047;-71
2023/12/29 16:46:26;;;;;;;12.38;9.23;;;;;;;21.65;49.48;100543.19;41353354;28;20129;-73
2023/12/29 17:06:27;;;;;;;10.32;8.73;;;;;;;21.57;51.18;100517.44;41279138;28;20054;-71
2023/12/29 17:26:27;;;;;;;10.18;8.77;;;;;;;21.59;50.50;100504.13;41373638;28;20039;-69
2023/12/29 17:46:29;;;;;;;19.77;12.90;;;;;;;21.78;51.68;100513.28;41404605;28;20050;-70
2023/12/29 18:06:31;;;;;;;34.00;24.45;;;;;;;21.87;51.93;100520.44;41414660;28;20076;-69
2023/12/29 18:26:31;;;;;;;29.77;23.45;;;;;;;21.82;52.26;100526.06;41354822;28;20074;-70
2023/12/29 18:46:34;;;;;;;28.55;21.67;;;;;;;21.79;52.02;100518.41;41375451;28;20557;-69
2023/12/29 19:06:34;;;;;;;28.73;20.25;;;;;;;21.74;51.72;100518.78;41355460;28;20046;-69
2023/12/29 19:26:35;;;;;;;29.50;18.95;;;;;;;21.69;51.68;100512.16;41360951;28;20045;-69
2023/12/29 19:46:41;;;;;;;23.00;17.60;;;;;;;21.57;52.09;100496.38;41356024;28;20042;-69
2023/12/29 20:06:41;;;;;;;23.63;17.25;;;;;;;21.56;51.98;100504.38;41369641;28;20070;-67
2023/12/29 20:26:43;;;;;;;22.95;16.38;;;;;;;21.62;53.29;100490.75;41202146;28;20050;-67
2023/12/29 20:46:44;;;;;;;31.38;17.33;;;;;;;21.44;53.71;100475.34;41359555;28;22882;-69
2023/12/29 21:06:45;;;;;;;37.08;22.33;;;;;;;20.40;47.40;100462.94;41381703;28;20072;-76
2023/12/29 21:26:45;;;;;;;29.20;20.20;;;;;;;21.04;48.89;100488.91;41394766;28;20840;-77
2023/12/29 21:46:46;;;;;;;28.25;19.77;;;;;;;20.98;50.20;100481.50;41350165;28;20067;-75
2023/12/29 22:06:49;;;;;;;26.52;20.17;;;;;;;20.90;50.72;100466.28;41415137;28;20183;-75
2023/12/29 22:26:50;;;;;;;27.17;20.13;;;;;;;20.81;51.25;100456.44;41391370;28;20188;-76
2023/12/29 22:46:50;;;;;;;23.95;17.92;;;;;;;20.80;51.11;100452.16;41382132;28;20057;-75
2023/12/29 23:06:50;;;;;;;24.48;17.45;;;;;;;20.76;51.38;100456.78;41364267;28;20405;-76
2023/12/29 23:26:53;;;;;;;22.00;18.35;;;;;;;20.71;51.44;100415.94;41316953;28;20049;-76
2023/12/29 23:46:54;;;;;;;21.55;16.75;;;;;;;20.64;51.42;100418.19;41200621;28;20042;-74
